createdAt,value
2023-05-09T00:01:32.091Z,8.03
2023-05-09T00:04:35.447Z,8.08
2023-05-09T00:07:38.312Z,8.18
2023-05-09T00:10:41.134Z,8.19
2023-05-09T00:13:44.275Z,8.23
2023-05-09T00:16:47.140Z,8.24
2023-05-09T00:19:51.136Z,8.17
2023-05-09T00:22:55.210Z,8.11
2023-05-09T00:25:58.417Z,8.02
2023-05-09T00:29:01.123Z,7.98
2023-05-09T00:35:07.785Z,7.92
2023-05-09T00:38:10.469Z,7.91
2023-05-09T00:41:13.319Z,7.86
2023-05-09T00:44:15.807Z,7.82
2023-05-09T00:47:19.105Z,7.80
2023-05-09T00:50:21.974Z,7.73
2023-05-09T00:53:25.383Z,7.70
2023-05-09T00:56:28.366Z,7.73
2023-05-09T00:59:31.925Z,7.67
2023-05-09T01:02:34.474Z,7.68
2023-05-09T01:05:50.030Z,7.63
2023-05-09T01:09:17.523Z,7.55
2023-05-09T01:12:26.073Z,7.52
2023-05-09T01:15:34.361Z,7.53
2023-05-09T01:18:51.922Z,7.48
2023-05-09T01:21:56.831Z,7.40
2023-05-09T01:25:24.876Z,7.47
2023-05-09T01:28:55.068Z,7.36
2023-05-09T01:32:01.046Z,7.42
2023-05-09T01:35:05.218Z,7.30
2023-05-09T01:38:13.497Z,7.23
2023-05-09T01:41:18.126Z,7.25
2023-05-09T01:44:22.650Z,7.27
2023-05-09T01:47:26.397Z,7.32
2023-05-09T01:50:32.957Z,7.25
2023-05-09T01:53:36.111Z,7.18
2023-05-09T01:56:41.036Z,7.07
2023-05-09T01:59:45.575Z,7.14
2023-05-09T02:02:49.427Z,7.11
2023-05-09T02:05:53.198Z,7.13
2023-05-09T02:08:56.955Z,7.11
2023-05-09T02:12:02.030Z,7.05
2023-05-09T02:15:06.572Z,6.97
2023-05-09T02:18:09.669Z,6.94
2023-05-09T02:21:12.917Z,6.92
2023-05-09T02:24:15.609Z,6.90
2023-05-09T02:27:20.673Z,6.96
2023-05-09T02:30:27.632Z,7.06
2023-05-09T02:33:31.453Z,7.03
2023-05-09T02:36:35.062Z,7.04
2023-05-09T02:39:37.940Z,7.01
2023-05-09T02:42:40.574Z,7.05
2023-05-09T02:45:43.879Z,7.04
2023-05-09T02:48:46.473Z,7.03
2023-05-09T02:51:49.259Z,7.04
2023-05-09T02:54:51.812Z,6.98
2023-05-09T02:58:09.193Z,6.99
2023-05-09T03:01:15.889Z,6.94
2023-05-09T03:04:19.854Z,6.93
2023-05-09T03:07:22.533Z,6.87
2023-05-09T03:10:25.472Z,6.91
2023-05-09T03:13:28.128Z,6.90
2023-05-09T03:16:32.758Z,6.92
2023-05-09T03:19:35.616Z,6.85
2023-05-09T03:22:38.746Z,6.83
2023-05-09T03:25:42.189Z,6.80
2023-05-09T03:28:45.976Z,6.71
2023-05-09T03:31:48.808Z,6.67
2023-05-09T03:34:51.791Z,6.67
2023-05-09T03:37:54.339Z,6.62
2023-05-09T03:40:57.387Z,6.70
2023-05-09T03:44:00.628Z,6.66
2023-05-09T03:47:03.515Z,6.69
2023-05-09T03:50:07.922Z,6.75
2023-05-09T03:53:11.437Z,6.86
2023-05-09T03:56:14.541Z,6.89
2023-05-09T03:59:18.134Z,6.94
2023-05-09T04:02:21.087Z,6.96
2023-05-09T04:05:24.394Z,7.04
2023-05-09T04:08:27.807Z,7.09
2023-05-09T04:11:30.660Z,7.15
2023-05-09T04:14:33.708Z,7.18
2023-05-09T04:17:36.741Z,7.24
2023-05-09T04:20:39.583Z,7.29
2023-05-09T04:23:43.700Z,7.31
2023-05-09T04:26:46.792Z,7.36
2023-05-09T04:29:49.911Z,7.39
2023-05-09T04:32:53.572Z,7.40
2023-05-09T04:35:57.845Z,7.47
2023-05-09T04:39:01.100Z,7.58
2023-05-09T04:42:05.209Z,7.65
2023-05-09T04:45:08.443Z,7.63
2023-05-09T04:48:11.894Z,7.65
2023-05-09T04:51:14.369Z,7.71
2023-05-09T04:54:17.493Z,7.78
2023-05-09T04:57:21.329Z,7.78
2023-05-09T05:00:24.904Z,7.85
2023-05-09T05:03:27.461Z,7.95
2023-05-09T05:06:31.785Z,8.03
2023-05-09T05:09:35.058Z,8.03
2023-05-09T05:12:38.164Z,8.09
2023-05-09T05:15:43.274Z,8.21
2023-05-09T05:18:46.337Z,8.27
2023-05-09T05:21:49.308Z,8.36
2023-05-09T05:24:52.461Z,8.43
2023-05-09T05:27:55.351Z,8.54
2023-05-09T05:30:58.194Z,8.66
2023-05-09T05:34:00.739Z,8.80
2023-05-09T05:37:04.759Z,8.99
2023-05-09T05:40:08.222Z,8.98
2023-05-09T05:43:12.190Z,8.95
2023-05-09T05:46:15.109Z,9.08
2023-05-09T05:49:18.519Z,9.36
2023-05-09T05:52:21.261Z,9.39
2023-05-09T05:55:24.221Z,9.50
2023-05-09T05:58:26.912Z,9.50
2023-05-09T06:01:29.738Z,9.52
2023-05-09T06:04:33.912Z,9.56
2023-05-09T06:07:37.007Z,9.71
2023-05-09T06:10:40.102Z,9.80
2023-05-09T06:13:42.676Z,10.03
2023-05-09T06:16:46.548Z,10.15
2023-05-09T06:19:49.942Z,10.26
2023-05-09T06:22:52.777Z,10.53
2023-05-09T06:25:55.504Z,10.62
2023-05-09T06:28:58.402Z,10.58
2023-05-09T06:32:01.083Z,10.67
2023-05-09T06:35:04.126Z,10.61
2023-05-09T06:38:07.107Z,10.77
2023-05-09T06:41:10.040Z,11.08
2023-05-09T06:44:12.521Z,11.03
2023-05-09T06:47:15.527Z,11.46
2023-05-09T06:50:18.226Z,11.84
2023-05-09T06:53:21.187Z,12.06
2023-05-09T06:56:25.359Z,12.02
2023-05-09T06:59:28.296Z,12.33
2023-05-09T07:02:31.099Z,12.45
2023-05-09T07:05:34.544Z,12.88
2023-05-09T07:08:37.183Z,13.03
2023-05-09T07:11:40.066Z,13.40
2023-05-09T07:14:42.500Z,13.84
2023-05-09T07:17:45.362Z,14.40
2023-05-09T07:20:48.052Z,14.47
2023-05-09T07:23:50.961Z,15.94
2023-05-09T07:26:53.701Z,16.79
2023-05-09T07:29:56.567Z,15.99
2023-05-09T07:32:59.192Z,15.95
2023-05-09T07:36:02.083Z,17.49
2023-05-09T07:39:04.989Z,16.01
2023-05-09T07:42:08.510Z,16.88
2023-05-09T07:45:11.115Z,17.65
2023-05-09T07:48:13.932Z,18.06
2023-05-09T07:51:16.562Z,17.07
2023-05-09T07:54:19.420Z,17.05
2023-05-09T07:57:22.799Z,17.07
2023-05-09T08:00:25.921Z,18.38
2023-05-09T08:03:28.792Z,18.55
2023-05-09T08:06:31.436Z,20.60
2023-05-09T08:09:34.517Z,20.97
2023-05-09T08:12:37.103Z,21.93
2023-05-09T08:15:39.940Z,21.17
2023-05-09T08:18:42.517Z,19.65
2023-05-09T08:21:45.617Z,18.97
2023-05-09T08:24:48.228Z,20.72
2023-05-09T08:27:52.970Z,19.81
2023-05-09T08:30:56.941Z,20.18
2023-05-09T08:33:59.897Z,20.28
2023-05-09T08:37:03.177Z,20.89
2023-05-09T08:40:10.184Z,19.40
2023-05-09T08:43:14.314Z,18.74
2023-05-09T08:46:18.833Z,17.93
2023-05-09T08:49:21.537Z,18.35
2023-05-09T08:52:24.719Z,20.49
2023-05-09T08:55:28.471Z,20.90
2023-05-09T08:58:32.013Z,20.92
2023-05-09T09:01:37.848Z,19.67
2023-05-09T09:04:41.051Z,20.14
2023-05-09T09:07:44.975Z,22.55
2023-05-09T09:10:48.364Z,22.45
2023-05-09T09:13:54.964Z,25.21
2023-05-09T09:16:58.711Z,24.16
2023-05-09T09:20:05.791Z,23.02
2023-05-09T09:23:10.640Z,22.12
2023-05-09T09:26:13.719Z,22.68
2023-05-09T09:29:18.683Z,24.79
2023-05-09T09:32:32.263Z,22.96
2023-05-09T09:35:39.280Z,21.69
2023-05-09T09:38:45.679Z,20.67
2023-05-09T09:41:48.783Z,24.39
2023-05-09T09:44:57.635Z,26.21
2023-05-09T09:48:07.411Z,25.88
2023-05-09T09:51:11.558Z,23.30
2023-05-09T09:54:15.056Z,25.76
2023-05-09T09:57:38.338Z,25.87
2023-05-09T10:00:41.543Z,27.14
2023-05-09T10:03:47.148Z,27.57
2023-05-09T10:06:58.218Z,28.45
2023-05-09T10:10:06.066Z,28.13
2023-05-09T10:13:12.102Z,28.27
2023-05-09T10:16:21.365Z,28.89
2023-05-09T10:19:30.190Z,29.43
2023-05-09T10:22:34.592Z,27.65
2023-05-09T10:25:46.918Z,26.72
2023-05-09T10:28:54.809Z,25.87
2023-05-09T10:32:00.452Z,24.83
2023-05-09T10:35:07.005Z,22.82
2023-05-09T10:38:12.533Z,20.47
2023-05-09T10:41:17.307Z,20.45
2023-05-09T10:44:23.226Z,19.45
2023-05-09T10:47:28.086Z,21.25
2023-05-09T10:50:31.474Z,20.33
2023-05-09T10:53:48.790Z,21.54
2023-05-09T10:56:51.932Z,20.95
2023-05-09T10:59:56.708Z,20.88
2023-05-09T11:03:06.440Z,22.41
2023-05-09T11:06:09.439Z,25.83
2023-05-09T11:09:33.038Z,25.71
2023-05-09T11:12:56.180Z,24.67
2023-05-09T11:16:03.221Z,23.07
2023-05-09T11:19:08.311Z,25.60
2023-05-09T11:22:17.920Z,26.25
2023-05-09T11:25:29.241Z,24.84
2023-05-09T11:28:37.648Z,24.33
2023-05-09T11:32:07.815Z,22.84
2023-05-09T11:35:22.032Z,24.35
2023-05-09T11:38:45.306Z,24.08
2023-05-09T11:41:51.206Z,23.86
2023-05-09T11:44:58.585Z,23.87
2023-05-09T11:48:09.246Z,23.22
2023-05-09T11:51:19.390Z,23.23
2023-05-09T11:54:24.397Z,22.79
2023-05-09T11:57:29.198Z,22.13
2023-05-09T12:00:32.097Z,24.33
2023-05-09T12:03:34.994Z,22.59
2023-05-09T12:06:37.810Z,22.24
2023-05-09T12:09:40.922Z,20.36
2023-05-09T12:12:45.927Z,22.79
2023-05-09T12:15:49.110Z,22.60
2023-05-09T12:18:54.420Z,24.21
2023-05-09T12:22:02.950Z,27.90
2023-05-09T12:25:07.834Z,27.55
2023-05-09T12:28:11.069Z,23.46
2023-05-09T12:31:13.935Z,23.68
2023-05-09T12:34:17.217Z,27.35
2023-05-09T12:37:20.049Z,31.21
2023-05-09T12:40:23.444Z,29.19
2023-05-09T12:43:26.113Z,29.08
2023-05-09T12:46:29.007Z,28.38
2023-05-09T12:49:32.316Z,28.51
2023-05-09T12:52:54.154Z,29.99
2023-05-09T12:56:12.240Z,27.40
2023-05-09T12:59:20.946Z,25.19
2023-05-09T13:02:25.592Z,23.82
2023-05-09T13:05:28.866Z,24.39
2023-05-09T13:08:31.801Z,26.67
2023-05-09T13:11:35.392Z,28.92
2023-05-09T13:14:38.216Z,27.23
2023-05-09T13:17:41.156Z,29.99
2023-05-09T13:20:43.744Z,29.78
2023-05-09T13:23:46.576Z,29.50
2023-05-09T13:26:49.198Z,27.15
2023-05-09T13:29:52.068Z,26.09
2023-05-09T13:32:54.645Z,28.58
2023-05-09T13:35:57.538Z,30.67
2023-05-09T13:39:00.006Z,30.51
2023-05-09T13:42:04.024Z,30.00
2023-05-09T13:45:07.109Z,27.82
2023-05-09T13:48:09.991Z,26.49
2023-05-09T13:51:12.576Z,28.45
2023-05-09T13:54:17.445Z,25.39
2023-05-09T13:57:20.105Z,22.91
2023-05-09T14:00:25.495Z,21.02
2023-05-09T14:03:28.348Z,20.20
2023-05-09T14:06:31.006Z,20.34
2023-05-09T14:09:40.084Z,20.38
2023-05-09T14:12:47.193Z,20.28
2023-05-09T14:15:50.149Z,21.88
2023-05-09T14:18:52.795Z,23.77
2023-05-09T14:21:56.088Z,21.69
2023-05-09T14:24:58.665Z,20.24
2023-05-09T14:28:01.637Z,20.36
2023-05-09T14:31:04.434Z,20.56
2023-05-09T14:34:07.334Z,20.98
2023-05-09T14:37:13.602Z,21.22
2023-05-09T14:40:16.774Z,21.48
2023-05-09T14:43:19.544Z,20.28
2023-05-09T14:46:24.867Z,20.04
2023-05-09T14:49:27.712Z,19.81
2023-05-09T14:52:30.548Z,20.05
2023-05-09T14:55:33.451Z,20.74
2023-05-09T14:58:36.296Z,21.47
2023-05-09T15:01:39.170Z,23.67
2023-05-09T15:04:43.826Z,23.89
2023-05-09T15:07:46.558Z,23.59
2023-05-09T15:10:50.902Z,21.50
2023-05-09T15:13:53.799Z,20.13
2023-05-09T15:16:59.262Z,19.43
2023-05-09T15:20:02.968Z,18.63
2023-05-09T15:23:07.482Z,18.59
2023-05-09T15:26:12.336Z,23.37
2023-05-09T15:29:15.175Z,24.02
2023-05-09T15:32:17.837Z,21.30
2023-05-09T15:35:20.743Z,20.10
2023-05-09T15:38:23.442Z,19.89
2023-05-09T15:41:26.185Z,19.31
2023-05-09T15:44:28.690Z,18.84
2023-05-09T15:47:31.592Z,18.80
2023-05-09T15:50:34.312Z,18.56
2023-05-09T15:53:37.289Z,18.37
2023-05-09T15:56:39.858Z,18.40
2023-05-09T15:59:42.667Z,18.46
2023-05-09T16:02:45.616Z,18.52
2023-05-09T16:05:48.574Z,18.18
2023-05-09T16:08:51.081Z,18.02
2023-05-09T16:11:54.012Z,19.44
2023-05-09T16:14:56.576Z,22.67
2023-05-09T16:17:59.375Z,22.70
2023-05-09T16:21:02.057Z,20.76
2023-05-09T16:24:05.758Z,19.32
2023-05-09T16:27:08.281Z,21.14
2023-05-09T16:30:11.526Z,23.55
2023-05-09T16:33:14.532Z,20.74
2023-05-09T16:36:17.699Z,19.60
2023-05-09T16:39:20.299Z,18.83
2023-05-09T16:42:23.209Z,18.55
2023-05-09T16:45:25.826Z,18.21
2023-05-09T16:48:28.737Z,17.81
2023-05-09T16:51:31.284Z,17.54
2023-05-09T16:54:34.073Z,17.34
2023-05-09T16:57:36.606Z,17.11
2023-05-09T17:00:39.503Z,17.03
2023-05-09T17:03:42.060Z,16.90
2023-05-09T17:06:44.854Z,16.67
2023-05-09T17:09:48.667Z,16.57
2023-05-09T17:12:51.883Z,16.48
2023-05-09T17:15:54.399Z,16.57
2023-05-09T17:18:57.328Z,16.37
2023-05-09T17:22:04.246Z,16.33
2023-05-09T17:25:07.671Z,16.36
2023-05-09T17:28:10.206Z,16.37
2023-05-09T17:31:13.305Z,16.27
2023-05-09T17:34:15.911Z,16.13
2023-05-09T17:37:18.700Z,16.01
2023-05-09T17:40:21.423Z,15.96
2023-05-09T17:43:24.337Z,15.81
2023-05-09T17:46:27.401Z,15.69
2023-05-09T17:49:30.444Z,15.69
2023-05-09T17:52:33.928Z,15.49
2023-05-09T17:55:36.807Z,15.36
2023-05-09T17:58:39.380Z,15.21
2023-05-09T18:01:42.194Z,15.16
2023-05-09T18:04:46.329Z,14.98
2023-05-09T18:07:49.582Z,14.91
2023-05-09T18:10:54.605Z,14.70
2023-05-09T18:13:57.061Z,14.63
2023-05-09T18:16:59.928Z,14.69
2023-05-09T18:20:03.490Z,14.52
2023-05-09T18:23:06.350Z,14.37
2023-05-09T18:26:08.848Z,14.26
2023-05-09T18:29:11.735Z,14.11
2023-05-09T18:32:14.360Z,14.09
2023-05-09T18:35:17.253Z,14.11
2023-05-09T18:38:19.936Z,13.90
2023-05-09T18:41:24.132Z,13.75
2023-05-09T18:44:26.606Z,13.68
2023-05-09T18:47:29.491Z,13.72
2023-05-09T18:50:32.589Z,13.63
2023-05-09T18:53:35.482Z,13.54
2023-05-09T18:56:39.666Z,13.45
2023-05-09T18:59:42.813Z,13.46
2023-05-09T19:02:45.858Z,13.43
2023-05-09T19:05:49.012Z,13.33
2023-05-09T19:08:53.853Z,13.30
2023-05-09T19:11:58.463Z,13.27
2023-05-09T19:15:02.328Z,13.19
2023-05-09T19:18:05.821Z,13.12
2023-05-09T19:21:09.445Z,13.12
2023-05-09T19:24:12.698Z,13.05
2023-05-09T19:27:15.642Z,12.89
2023-05-09T19:30:20.436Z,12.96
2023-05-09T19:33:23.533Z,12.93
2023-05-09T19:36:26.759Z,13.03
2023-05-09T19:39:29.798Z,12.85
2023-05-09T19:42:34.073Z,12.77
2023-05-09T19:45:37.132Z,12.65
2023-05-09T19:48:40.333Z,12.53
2023-05-09T19:51:43.584Z,12.49
2023-05-09T19:54:46.853Z,12.43
2023-05-09T19:57:49.615Z,12.29
2023-05-09T20:00:52.672Z,12.33
2023-05-09T20:03:56.839Z,12.19
2023-05-09T20:06:59.454Z,12.08
2023-05-09T20:10:02.378Z,12.12
2023-05-09T20:13:05.094Z,12.02
2023-05-09T20:16:08.006Z,12.01
2023-05-09T20:19:14.151Z,11.93
2023-05-09T20:22:17.172Z,11.89
2023-05-09T20:25:20.035Z,11.92
2023-05-09T20:28:23.032Z,11.97
2023-05-09T20:31:25.695Z,11.84
2023-05-09T20:34:28.457Z,11.80
2023-05-09T20:37:31.252Z,11.72
2023-05-09T20:40:34.174Z,11.74
2023-05-09T20:43:36.689Z,11.81
2023-05-09T20:46:40.347Z,11.76
2023-05-09T20:49:42.840Z,11.69
2023-05-09T20:52:45.654Z,11.68
2023-05-09T20:55:50.337Z,11.68
2023-05-09T20:58:53.358Z,11.61
2023-05-09T21:01:56.070Z,11.59
2023-05-09T21:04:58.950Z,11.71
2023-05-09T21:08:01.764Z,11.78
2023-05-09T21:11:04.521Z,11.69
2023-05-09T21:14:08.322Z,11.52
2023-05-09T21:17:11.082Z,11.43
2023-05-09T21:20:14.040Z,11.37
2023-05-09T21:23:18.636Z,11.27
2023-05-09T21:26:23.105Z,11.24
2023-05-09T21:29:26.179Z,11.32
2023-05-09T21:32:28.725Z,11.32
2023-05-09T21:35:31.628Z,11.44
2023-05-09T21:38:34.099Z,11.52
2023-05-09T21:41:38.484Z,11.77
2023-05-09T21:44:40.995Z,11.87
2023-05-09T21:47:44.049Z,11.94
2023-05-09T21:50:46.752Z,12.02
2023-05-09T21:53:49.527Z,12.02
2023-05-09T21:56:52.007Z,12.14
2023-05-09T21:59:56.164Z,12.19
2023-05-09T22:02:59.084Z,12.10
2023-05-09T22:06:01.894Z,12.17
2023-05-09T22:09:05.472Z,12.13
2023-05-09T22:12:08.876Z,12.09
2023-05-09T22:15:11.495Z,12.14
2023-05-09T22:18:14.329Z,12.04
2023-05-09T22:21:16.833Z,12.01
2023-05-09T22:24:19.583Z,11.96
2023-05-09T22:27:22.122Z,11.96
2023-05-09T22:30:25.052Z,12.15
2023-05-09T22:33:27.885Z,12.19
2023-05-09T22:36:31.987Z,12.16
2023-05-09T22:39:34.595Z,12.17
2023-05-09T22:42:37.478Z,12.17
2023-05-09T22:45:40.049Z,12.33
2023-05-09T22:48:42.906Z,12.22
2023-05-09T22:51:45.750Z,12.27
2023-05-09T22:54:48.561Z,12.38
2023-05-09T22:57:51.087Z,12.40
2023-05-09T23:00:54.002Z,12.39
2023-05-09T23:03:56.534Z,12.42
2023-05-09T23:07:17.780Z,12.39
2023-05-09T23:10:38.889Z,12.36
2023-05-09T23:13:42.285Z,12.53
2023-05-09T23:16:44.812Z,12.40
2023-05-09T23:19:47.619Z,12.45
2023-05-09T23:22:50.443Z,12.46
2023-05-09T23:25:53.349Z,12.46
2023-05-09T23:28:55.950Z,12.47
2023-05-09T23:31:59.059Z,12.43
2023-05-09T23:35:01.604Z,12.44
2023-05-09T23:38:04.748Z,12.31
2023-05-09T23:41:07.368Z,12.33
2023-05-09T23:44:12.254Z,12.34
2023-05-09T23:47:14.802Z,12.36
2023-05-09T23:50:17.949Z,12.27
2023-05-09T23:53:20.719Z,12.25
2023-05-09T23:56:23.619Z,12.22
2023-05-09T23:59:26.235Z,12.02
